Meteo Giornale » Osservazioni meteo Stati Uniti (USA) » Rockland-Knox
ore: 17:56 - Osservazioni Meteo Rockland-Knox
Lat. 44° 4' N Lon. 69° 6' W Alt. 17 metri s.l.m.
19 °C
Sereno
Temp. 24 Ore
9 °C
21 °C
Sud/Sud-Est
9.3 Km/h
Dew point 15 °C
Umidità 77 %
Visibilità 10 Km
Il sole sorge alle ore 05:59
Il sole tramonta alle ore 19:12
| Data e Ora | Cielo e Fenomeni | T °C | DP °C | Um. % | Pres. hPa | Vis. km | Vento km/h | |
|---|---|---|---|---|---|---|---|---|
| Oggi h: 17:56 | Sereno | 19 | 15 | 77 | 1019 | 10 | S/SE 9.3 | |
| Oggi h: 16:56 | Sereno | 19 | 15 | 77 | 1019 | 10 | E/SE 13 | |
| Oggi h: 15:56 | Poco Nuvoloso | 20 | 14 | 68 | 1019 | 10 | SE 16.7 | |
| Oggi h: 14:56 | Sereno | 20 | 14 | 68 | 1019 | 10 | E/SE 14.8 | |
| Oggi h: 13:56 | Foschia | 21 | 16 | 73 | 1019 | 5 | SE 14.8 | |
| Oggi h: 13:36 | Poco Nuvoloso | 21 | 15 | 68 | 0 | 10 | N 7.4 | |
| Oggi h: 12:56 | Coperto | 21 | 15 | 68 | 0 | 10 | E/SE 13 | |
| Oggi h: 12:31 | Coperto | 20 | 15 | 72 | 1018 | 10 | E 13 | |
| Oggi h: 11:56 | Coperto | 19 | 15 | 77 | 1019 | 10 | N 0 | |
| Oggi h: 10:56 | Coperto | 19 | 16 | 82 | 1019 | 13 | E/SE 11.1 | |
| Oggi h: 10:15 | Molto Nuvoloso | 19 | 14 | 72 | 1019 | 10 | N/NE 11.1 | |
| Oggi h: 09:56 | Poco Nuvoloso | 18 | 14 | 77 | 1019 | 10 | E/NE 9.3 | |
| Oggi h: 08:56 | Coperto | 17 | 14 | 82 | 1019 | 10 | NE 9.3 | |
| Oggi h: 08:22 | Molto Nuvoloso | 16 | 14 | 87 | 1018 | 10 | NE 9.3 | |
| Oggi h: 07:56 | Poco Nuvoloso | 16 | 14 | 87 | 1018 | 10 | E/NE 9.3 | |
| Oggi h: 07:18 | Molto Nuvoloso | 15 | 14 | 93 | 1018 | 10 | N 5.5 | |
| Oggi h: 06:56 | Sereno | 12 | 12 | 100 | 1018 | 10 | N 0 | |
| Oggi h: 05:56 | Sereno | 11 | 10 | 93 | 1017 | 10 | N 0 | |
| Oggi h: 04:56 | Sereno | 9 | 9 | 100 | 1018 | 10 | N 0 | |
| Oggi h: 03:56 | Nuvoloso | 9 | 9 | 100 | 1018 | 10 | N 0 | |
| Oggi h: 02:56 | Sereno | 9 | 9 | 100 | 1018 | 10 | N 0 | |
| Oggi h: 01:56 | Sereno | 9 | 9 | 100 | 1018 | 10 | N 0 | |
| Oggi h: 00:56 | Sereno | 9 | 9 | 100 | 1018 | 10 | N 5.5 | |
| Ieri h: 23:56 | Sereno | 11 | 11 | 100 | 1018 | 10 | N 0 | |
| Ieri h: 22:56 | Sereno | 11 | 11 | 100 | 1018 | 10 | N 0 | |
| Ieri h: 21:56 | Sereno | 12 | 11 | 93 | 1018 | 10 | N 5.5 | |
| Ieri h: 20:56 | Sereno | 12 | 11 | 93 | 1018 | 10 | N 0 | |
| Ieri h: 19:56 | Sereno | 14 | 11 | 82 | 0 | 10 | O/SO 9.3 | |
| Ieri h: 18:56 | Sereno | 18 | 10 | 59 | 1018 | 10 | O/SO 16.7 | |



